createdAt,value
2023-02-06T00:01:57.780Z,4.22
2023-02-06T00:04:24.280Z,4.26
2023-02-06T00:06:50.884Z,4.28
2023-02-06T00:09:17.447Z,4.28
2023-02-06T00:11:44.023Z,4.19
2023-02-06T00:14:10.582Z,4.22
2023-02-06T00:16:37.261Z,4.21
2023-02-06T00:19:03.931Z,4.14
2023-02-06T00:21:30.890Z,4.10
2023-02-06T00:23:58.761Z,4.06
2023-02-06T00:26:25.693Z,3.98
2023-02-06T00:28:52.453Z,3.98
2023-02-06T00:31:19.114Z,3.99
2023-02-06T00:33:45.831Z,4.01
2023-02-06T00:36:12.356Z,3.97
2023-02-06T00:38:39.258Z,3.93
2023-02-06T00:41:05.981Z,3.98
2023-02-06T00:43:32.661Z,3.96
2023-02-06T00:45:59.350Z,3.83
2023-02-06T00:48:26.088Z,3.86
2023-02-06T00:50:53.164Z,3.93
2023-02-06T00:53:19.969Z,3.93
2023-02-06T00:55:46.476Z,3.93
2023-02-06T00:58:13.069Z,3.98
2023-02-06T01:00:39.596Z,4.02
2023-02-06T01:03:06.264Z,3.85
2023-02-06T01:05:32.916Z,3.78
2023-02-06T01:07:59.564Z,3.84
2023-02-06T01:10:26.132Z,3.80
2023-02-06T01:12:53.911Z,3.74
2023-02-06T01:15:20.520Z,3.72
2023-02-06T01:17:47.086Z,3.48
2023-02-06T01:20:13.945Z,3.60
2023-02-06T01:22:40.743Z,3.61
2023-02-06T01:25:07.489Z,3.69
2023-02-06T01:27:36.058Z,3.66
2023-02-06T01:30:02.812Z,3.58
2023-02-06T01:32:29.373Z,3.60
2023-02-06T01:34:55.902Z,3.53
2023-02-06T01:37:22.460Z,3.52
2023-02-06T01:39:49.011Z,3.42
2023-02-06T01:42:15.638Z,3.45
2023-02-06T01:44:42.239Z,3.42
2023-02-06T01:47:09.754Z,3.48
2023-02-06T01:49:36.338Z,3.51
2023-02-06T01:52:14.451Z,3.57
2023-02-06T01:54:41.660Z,3.61
2023-02-06T01:57:11.039Z,3.53
2023-02-06T01:59:38.268Z,3.48
2023-02-06T02:02:04.927Z,3.44
2023-02-06T02:04:32.629Z,3.40
2023-02-06T02:07:15.160Z,3.41
2023-02-06T02:09:41.729Z,3.34
2023-02-06T02:12:08.324Z,3.25
2023-02-06T02:14:35.637Z,3.27
2023-02-06T02:17:20.979Z,3.30
2023-02-06T02:19:56.553Z,3.32
2023-02-06T02:22:23.046Z,3.24
2023-02-06T02:25:08.253Z,3.23
2023-02-06T02:27:50.097Z,3.23
2023-02-06T02:30:16.641Z,3.23
2023-02-06T02:32:55.515Z,3.25
2023-02-06T02:35:28.823Z,3.31
2023-02-06T02:38:14.292Z,3.31
2023-02-06T02:40:43.830Z,3.23
2023-02-06T02:43:29.112Z,3.23
2023-02-06T02:45:59.276Z,3.22
2023-02-06T02:48:28.221Z,3.23
2023-02-06T02:50:55.695Z,3.25
2023-02-06T02:53:22.240Z,3.27
2023-02-06T02:55:48.803Z,3.20
2023-02-06T02:58:18.422Z,3.14
2023-02-06T03:00:47.524Z,3.19
2023-02-06T03:03:14.743Z,3.11
2023-02-06T03:05:50.010Z,3.14
2023-02-06T03:08:16.547Z,3.16
2023-02-06T03:11:01.946Z,3.15
2023-02-06T03:13:37.313Z,3.17
2023-02-06T03:16:09.927Z,3.23
2023-02-06T03:18:41.378Z,3.17
2023-02-06T03:21:10.426Z,3.18
2023-02-06T03:23:39.054Z,3.19
2023-02-06T03:26:08.476Z,3.10
2023-02-06T03:28:37.611Z,3.11
2023-02-06T03:31:07.036Z,3.13
2023-02-06T03:33:55.181Z,3.11
2023-02-06T03:36:22.093Z,3.17
2023-02-06T03:38:49.532Z,3.09
2023-02-06T03:41:17.591Z,3.10
2023-02-06T03:43:47.002Z,3.06
2023-02-06T03:46:15.158Z,3.02
2023-02-06T03:48:47.753Z,2.98
2023-02-06T03:51:30.649Z,2.97
2023-02-06T03:53:59.966Z,3.01
2023-02-06T03:56:35.377Z,3.01
2023-02-06T03:59:01.992Z,3.01
2023-02-06T04:01:28.571Z,2.98
2023-02-06T04:03:55.315Z,2.90
2023-02-06T04:06:22.030Z,2.91
2023-02-06T04:08:48.581Z,2.92
2023-02-06T04:11:15.246Z,2.78
2023-02-06T04:13:41.785Z,2.85
2023-02-06T04:16:08.375Z,2.94
2023-02-06T04:18:34.946Z,2.96
2023-02-06T04:21:05.520Z,3.00
2023-02-06T04:23:32.184Z,2.87
2023-02-06T04:25:58.697Z,2.93
2023-02-06T04:28:25.293Z,2.98
2023-02-06T04:30:51.964Z,2.92
2023-02-06T04:33:18.593Z,2.90
2023-02-06T04:35:45.167Z,2.87
2023-02-06T04:38:11.682Z,2.73
2023-02-06T04:40:38.253Z,2.67
2023-02-06T04:43:04.772Z,2.68
2023-02-06T04:45:31.345Z,2.61
2023-02-06T04:48:00.764Z,2.58
2023-02-06T04:50:31.461Z,2.60
2023-02-06T04:52:58.586Z,2.65
2023-02-06T04:55:25.201Z,2.69
2023-02-06T04:57:51.764Z,2.66
2023-02-06T05:00:18.326Z,2.63
2023-02-06T05:02:45.294Z,2.67
2023-02-06T05:05:11.860Z,2.69
2023-02-06T05:07:38.494Z,2.71
2023-02-06T05:10:05.347Z,2.70
2023-02-06T05:12:31.888Z,2.58
2023-02-06T05:15:00.344Z,2.60
2023-02-06T05:17:29.941Z,2.57
2023-02-06T05:19:58.161Z,2.51
2023-02-06T05:22:25.057Z,2.54
2023-02-06T05:24:51.621Z,2.59
2023-02-06T05:27:18.140Z,2.60
2023-02-06T05:29:44.713Z,2.55
2023-02-06T05:32:11.323Z,2.59
2023-02-06T05:34:38.062Z,2.62
2023-02-06T05:37:04.602Z,2.60
2023-02-06T05:39:31.291Z,2.60
2023-02-06T05:41:57.843Z,2.59
2023-02-06T05:44:24.448Z,2.63
2023-02-06T05:46:51.167Z,2.62
2023-02-06T05:49:17.799Z,2.68
2023-02-06T05:51:44.535Z,2.68
2023-02-06T05:54:11.145Z,2.70
2023-02-06T05:56:37.665Z,2.71
2023-02-06T05:59:04.263Z,2.63
2023-02-06T06:01:30.784Z,2.63
2023-02-06T06:03:57.324Z,2.60
2023-02-06T06:06:23.993Z,2.54
2023-02-06T06:08:50.602Z,2.51
2023-02-06T06:11:17.194Z,2.57
2023-02-06T06:13:43.742Z,2.52
2023-02-06T06:16:10.362Z,2.46
2023-02-06T06:18:37.118Z,2.44
2023-02-06T06:21:03.738Z,2.45
2023-02-06T06:23:30.382Z,2.41
2023-02-06T06:25:56.922Z,2.38
2023-02-06T06:28:23.505Z,2.39
2023-02-06T06:30:50.101Z,2.44
2023-02-06T06:33:17.940Z,2.34
2023-02-06T06:35:44.647Z,2.35
2023-02-06T06:38:11.177Z,2.28
2023-02-06T06:40:37.902Z,2.27
2023-02-06T06:43:04.518Z,2.22
2023-02-06T06:45:31.189Z,2.38
2023-02-06T06:47:57.733Z,2.44
2023-02-06T06:50:24.257Z,2.42
2023-02-06T06:52:50.835Z,2.35
2023-02-06T06:55:19.636Z,2.33
2023-02-06T06:57:46.630Z,2.32
2023-02-06T07:00:13.914Z,2.33
2023-02-06T07:02:40.566Z,2.20
2023-02-06T07:05:09.661Z,2.26
2023-02-06T07:07:36.694Z,2.25
2023-02-06T07:10:03.448Z,2.30
2023-02-06T07:12:30.032Z,2.28
2023-02-06T07:14:56.664Z,2.20
2023-02-06T07:17:23.321Z,2.20
2023-02-06T07:19:52.502Z,2.22
2023-02-06T07:22:20.353Z,2.22
2023-02-06T07:24:47.022Z,2.27
2023-02-06T07:27:13.602Z,2.26
2023-02-06T07:29:40.144Z,2.27
2023-02-06T07:32:06.701Z,2.29
2023-02-06T07:34:34.204Z,2.22
2023-02-06T07:37:00.935Z,2.22
2023-02-06T07:39:30.463Z,2.25
2023-02-06T07:41:57.047Z,2.26
2023-02-06T07:44:23.559Z,2.27
2023-02-06T07:46:52.099Z,2.26
2023-02-06T07:49:18.714Z,2.27
2023-02-06T07:51:46.155Z,2.26
2023-02-06T07:54:12.843Z,2.21
2023-02-06T07:56:39.453Z,2.20
2023-02-06T07:59:06.392Z,2.28
2023-02-06T08:01:33.057Z,2.29
2023-02-06T08:03:59.723Z,2.29
2023-02-06T08:06:26.501Z,2.32
2023-02-06T08:08:55.041Z,2.33
2023-02-06T08:11:21.988Z,2.37
2023-02-06T08:13:48.702Z,2.40
2023-02-06T08:16:16.661Z,2.46
2023-02-06T08:18:43.260Z,2.45
2023-02-06T08:21:11.278Z,2.45
2023-02-06T08:23:38.628Z,2.52
2023-02-06T08:26:12.883Z,2.64
2023-02-06T08:28:41.950Z,2.63
2023-02-06T08:31:13.760Z,2.59
2023-02-06T08:33:40.656Z,2.63
2023-02-06T08:36:07.913Z,2.72
2023-02-06T08:38:35.058Z,2.74
2023-02-06T08:41:01.642Z,2.70
2023-02-06T08:43:28.333Z,2.85
2023-02-06T08:45:57.508Z,3.65
2023-02-06T08:48:24.104Z,4.30
2023-02-06T08:50:50.643Z,4.94
2023-02-06T08:53:17.319Z,5.44
2023-02-06T08:55:43.877Z,5.76
2023-02-06T08:58:10.427Z,6.08
2023-02-06T09:00:37.017Z,6.03
2023-02-06T09:03:05.580Z,5.92
2023-02-06T09:05:32.450Z,5.69
2023-02-06T09:07:59.063Z,5.68
2023-02-06T09:10:28.089Z,5.97
2023-02-06T09:12:55.255Z,6.21
2023-02-06T09:15:22.057Z,6.19
2023-02-06T09:17:48.624Z,5.84
2023-02-06T09:20:15.349Z,5.53
2023-02-06T09:22:42.027Z,5.37
2023-02-06T09:25:08.630Z,5.36
2023-02-06T09:27:35.867Z,5.49
2023-02-06T09:30:02.502Z,5.53
2023-02-06T09:32:29.132Z,5.57
2023-02-06T09:34:55.657Z,5.66
2023-02-06T09:37:22.817Z,5.77
2023-02-06T09:39:49.332Z,5.87
2023-02-06T09:42:29.921Z,5.97
2023-02-06T09:45:02.155Z,5.95
2023-02-06T09:47:36.040Z,5.97
2023-02-06T09:50:07.850Z,5.98
2023-02-06T09:52:37.599Z,6.19
2023-02-06T09:55:19.305Z,6.28
2023-02-06T09:57:48.954Z,6.31
2023-02-06T10:00:27.441Z,6.33
2023-02-06T10:03:12.744Z,6.43
2023-02-06T10:05:42.426Z,6.54
2023-02-06T10:08:21.120Z,6.69
2023-02-06T10:10:47.946Z,6.71
2023-02-06T10:13:32.769Z,6.87
2023-02-06T10:16:01.766Z,6.95
2023-02-06T10:18:44.297Z,7.00
2023-02-06T10:21:25.648Z,6.93
2023-02-06T10:24:00.606Z,6.90
2023-02-06T10:26:27.893Z,6.91
2023-02-06T10:28:56.426Z,6.93
2023-02-06T10:31:38.386Z,6.92
2023-02-06T10:34:28.186Z,7.12
2023-02-06T10:36:54.749Z,7.25
2023-02-06T10:39:39.364Z,7.19
2023-02-06T10:42:12.728Z,7.26
2023-02-06T10:44:51.262Z,7.31
2023-02-06T10:47:32.715Z,7.39
2023-02-06T10:50:03.096Z,7.32
2023-02-06T10:52:32.838Z,7.45
2023-02-06T10:55:26.598Z,7.48
2023-02-06T10:58:00.163Z,7.53
2023-02-06T11:00:27.503Z,7.59
2023-02-06T11:03:07.283Z,7.56
2023-02-06T11:05:35.389Z,7.58
2023-02-06T11:08:02.315Z,7.78
2023-02-06T11:10:28.937Z,7.64
2023-02-06T11:13:01.692Z,7.74
2023-02-06T11:15:36.815Z,7.64
2023-02-06T11:18:05.046Z,7.83
2023-02-06T11:20:33.473Z,7.84
2023-02-06T11:23:17.269Z,8.01
2023-02-06T11:25:44.149Z,7.98
2023-02-06T11:28:15.275Z,7.95
2023-02-06T11:30:44.064Z,7.93
2023-02-06T11:33:19.634Z,8.15
2023-02-06T11:35:54.848Z,8.34
2023-02-06T11:38:22.938Z,8.01
2023-02-06T11:41:03.539Z,8.10
2023-02-06T11:43:31.936Z,8.17
2023-02-06T11:46:09.774Z,8.27
2023-02-06T11:48:36.472Z,8.15
2023-02-06T11:51:03.775Z,8.35
2023-02-06T11:53:30.635Z,8.42
2023-02-06T11:56:02.498Z,8.42
2023-02-06T11:58:29.765Z,8.59
2023-02-06T12:01:01.507Z,8.60
2023-02-06T12:03:43.419Z,8.32
2023-02-06T12:06:13.307Z,8.51
2023-02-06T12:08:46.059Z,8.69
2023-02-06T12:11:23.178Z,8.66
2023-02-06T12:13:53.143Z,8.59
2023-02-06T12:16:19.808Z,8.60
2023-02-06T12:18:49.766Z,8.66
2023-02-06T12:21:21.326Z,8.67
2023-02-06T12:23:52.976Z,8.76
2023-02-06T12:26:20.789Z,8.77
2023-02-06T12:28:50.428Z,8.90
2023-02-06T12:31:21.287Z,8.94
2023-02-06T12:33:54.762Z,8.90
2023-02-06T12:36:21.692Z,8.93
2023-02-06T12:39:06.222Z,8.98
2023-02-06T12:41:39.178Z,9.05
2023-02-06T12:44:18.088Z,9.04
2023-02-06T12:46:46.613Z,9.13
2023-02-06T12:49:17.140Z,9.17
2023-02-06T12:51:52.960Z,9.17
2023-02-06T12:54:19.452Z,9.24
2023-02-06T12:56:48.887Z,9.24
2023-02-06T12:59:15.451Z,9.32
2023-02-06T13:04:39.114Z,9.01
2023-02-06T13:07:11.404Z,9.02
2023-02-06T13:09:47.375Z,9.04
2023-02-06T13:12:16.075Z,9.18
2023-02-06T13:14:54.509Z,9.15
2023-02-06T13:17:21.294Z,9.08
2023-02-06T13:19:47.835Z,9.16
2023-02-06T13:22:15.761Z,9.28
2023-02-06T13:24:43.741Z,9.28
2023-02-06T13:27:12.126Z,9.23
2023-02-06T13:29:46.246Z,9.11
2023-02-06T13:32:15.007Z,9.22
2023-02-06T13:34:44.844Z,9.35
2023-02-06T13:37:26.657Z,9.41
2023-02-06T13:40:13.204Z,9.27
2023-02-06T13:42:58.180Z,9.23
2023-02-06T13:45:27.822Z,9.20
2023-02-06T13:48:06.746Z,9.24
2023-02-06T13:50:49.854Z,9.03
2023-02-06T13:53:31.014Z,9.00
2023-02-06T13:56:16.467Z,8.97
2023-02-06T13:59:06.554Z,8.76
2023-02-06T14:01:33.710Z,8.71
2023-02-06T14:04:00.869Z,8.74
2023-02-06T14:06:27.383Z,8.86
2023-02-06T14:08:53.881Z,8.77
2023-02-06T14:11:39.334Z,8.90
2023-02-06T14:14:16.753Z,8.93
2023-02-06T14:17:02.492Z,8.82
2023-02-06T14:19:32.069Z,8.85
2023-02-06T14:22:04.679Z,8.98
2023-02-06T14:24:31.221Z,8.82
2023-02-06T14:27:04.006Z,8.99
2023-02-06T14:29:42.038Z,9.05
2023-02-06T14:32:23.911Z,8.89
2023-02-06T14:34:53.550Z,8.88
2023-02-06T14:37:43.173Z,8.88
2023-02-06T14:40:29.825Z,8.74
2023-02-06T14:42:57.597Z,8.73
2023-02-06T14:45:33.755Z,8.74
2023-02-06T14:48:06.677Z,8.54
2023-02-06T14:50:40.523Z,8.51
2023-02-06T14:53:08.591Z,8.60
2023-02-06T14:55:40.435Z,8.49
2023-02-06T14:58:17.541Z,8.47
2023-02-06T15:00:44.234Z,8.41
2023-02-06T15:03:14.213Z,8.40
2023-02-06T15:05:40.909Z,8.36
2023-02-06T15:08:07.902Z,8.39
2023-02-06T15:10:36.078Z,8.34
2023-02-06T15:13:03.424Z,8.31
2023-02-06T15:15:32.018Z,8.23
2023-02-06T15:17:59.643Z,8.13
2023-02-06T15:20:26.271Z,8.17
2023-02-06T15:22:55.325Z,8.15
2023-02-06T15:25:41.670Z,8.17
2023-02-06T15:28:13.023Z,8.07
2023-02-06T15:30:40.080Z,7.99
2023-02-06T15:33:09.170Z,7.90
2023-02-06T15:35:37.013Z,7.97
2023-02-06T15:38:08.637Z,7.80
2023-02-06T15:40:39.881Z,7.90
2023-02-06T15:43:06.825Z,7.90
2023-02-06T15:45:36.119Z,7.87
2023-02-06T15:48:10.340Z,7.83
2023-02-06T15:50:37.334Z,7.84
2023-02-06T15:53:36.257Z,7.79
2023-02-06T15:56:04.679Z,7.88
2023-02-06T15:58:32.224Z,7.82
2023-02-06T16:00:59.161Z,7.83
2023-02-06T16:03:27.324Z,7.80
2023-02-06T16:05:54.369Z,7.70
2023-02-06T16:08:24.023Z,7.73
2023-02-06T16:10:52.875Z,7.63
2023-02-06T16:13:23.468Z,7.56
2023-02-06T16:16:02.214Z,7.62
2023-02-06T16:18:31.914Z,7.60
2023-02-06T16:21:22.281Z,7.59
2023-02-06T16:24:17.834Z,7.57
2023-02-06T16:26:49.076Z,7.53
2023-02-06T16:29:25.453Z,7.56
2023-02-06T16:32:10.645Z,7.59
2023-02-06T16:34:41.444Z,7.55
2023-02-06T16:37:15.296Z,7.45
2023-02-06T16:39:42.947Z,7.44
2023-02-06T16:42:19.823Z,7.36
2023-02-06T16:44:49.758Z,7.45
2023-02-06T16:47:18.514Z,7.34
2023-02-06T16:49:48.304Z,7.45
2023-02-06T16:52:20.572Z,7.48
2023-02-06T16:54:47.946Z,7.45
2023-02-06T16:57:26.456Z,7.48
2023-02-06T16:59:53.168Z,7.48
2023-02-06T17:02:19.843Z,7.47
2023-02-06T17:04:46.544Z,7.53
2023-02-06T17:07:18.039Z,7.58
2023-02-06T17:09:45.245Z,7.47
2023-02-06T17:12:13.379Z,7.47
2023-02-06T17:14:40.077Z,7.54
2023-02-06T17:17:06.751Z,7.56
2023-02-06T17:19:33.358Z,7.55
2023-02-06T17:22:00.092Z,7.58
2023-02-06T17:24:26.743Z,7.58
2023-02-06T17:26:53.307Z,7.51
2023-02-06T17:29:19.898Z,7.47
2023-02-06T17:31:46.708Z,7.39
2023-02-06T17:34:13.367Z,7.49
2023-02-06T17:36:40.927Z,7.42
2023-02-06T17:39:07.731Z,7.47
2023-02-06T17:41:36.594Z,7.51
2023-02-06T17:44:03.213Z,7.51
2023-02-06T17:46:29.814Z,7.49
2023-02-06T17:48:58.562Z,7.50
2023-02-06T17:51:28.266Z,7.49
2023-02-06T17:53:54.875Z,7.43
2023-02-06T17:56:21.566Z,7.44
2023-02-06T17:58:48.294Z,7.47
2023-02-06T18:01:17.165Z,7.43
2023-02-06T18:03:44.373Z,7.49
2023-02-06T18:06:11.870Z,7.50
2023-02-06T18:08:41.985Z,7.54
2023-02-06T18:11:26.658Z,7.49
2023-02-06T18:13:53.847Z,7.42
2023-02-06T18:16:21.993Z,7.45
2023-02-06T18:18:48.819Z,7.44
2023-02-06T18:21:15.963Z,7.51
2023-02-06T18:23:42.534Z,7.48
2023-02-06T18:26:09.579Z,7.49
2023-02-06T18:28:36.880Z,7.51
2023-02-06T18:31:03.989Z,7.49
2023-02-06T18:33:31.451Z,7.56
2023-02-06T18:35:58.394Z,7.51
2023-02-06T18:38:27.397Z,7.41
2023-02-06T18:40:53.959Z,7.44
2023-02-06T18:43:20.488Z,7.49
2023-02-06T18:45:47.051Z,7.54
2023-02-06T18:48:13.636Z,7.56
2023-02-06T18:50:42.451Z,7.59
2023-02-06T18:53:09.389Z,7.53
2023-02-06T18:55:40.137Z,7.54
2023-02-06T18:58:06.774Z,7.45
2023-02-06T19:00:35.943Z,7.45
2023-02-06T19:03:02.807Z,7.49
2023-02-06T19:05:30.807Z,7.47
2023-02-06T19:07:57.669Z,7.42
2023-02-06T19:10:25.883Z,7.28
2023-02-06T19:12:52.444Z,7.39
2023-02-06T19:15:19.244Z,7.39
2023-02-06T19:17:46.782Z,7.35
2023-02-06T19:20:13.422Z,7.35
2023-02-06T19:22:40.012Z,7.21
2023-02-06T19:25:10.559Z,7.23
2023-02-06T19:27:40.405Z,7.27
2023-02-06T19:30:08.105Z,7.13
2023-02-06T19:32:34.892Z,7.15
2023-02-06T19:35:01.550Z,7.08
2023-02-06T19:37:28.191Z,7.15
2023-02-06T19:39:54.717Z,7.13
2023-02-06T19:42:21.410Z,7.06
2023-02-06T19:44:51.240Z,6.94
2023-02-06T19:47:17.851Z,6.95
2023-02-06T19:49:44.467Z,6.94
2023-02-06T19:52:12.204Z,6.94
2023-02-06T19:54:38.870Z,6.87
2023-02-06T19:57:05.418Z,6.88
2023-02-06T19:59:32.043Z,6.84
2023-02-06T20:02:02.268Z,6.89
2023-02-06T20:04:31.011Z,6.88
2023-02-06T20:06:58.215Z,6.79
2023-02-06T20:09:25.367Z,6.78
2023-02-06T20:11:52.118Z,6.61
2023-02-06T20:14:19.298Z,6.71
2023-02-06T20:16:46.398Z,6.62
2023-02-06T20:19:15.644Z,6.61
2023-02-06T20:21:44.005Z,6.70
2023-02-06T20:24:12.644Z,6.81
2023-02-06T20:26:39.997Z,6.75
2023-02-06T20:29:07.059Z,6.83
2023-02-06T20:31:34.572Z,6.92
2023-02-06T20:34:01.634Z,6.95
2023-02-06T20:36:29.144Z,7.07
2023-02-06T20:38:57.204Z,7.01
2023-02-06T20:41:25.479Z,7.00
2023-02-06T20:43:52.124Z,7.00
2023-02-06T20:46:19.671Z,7.04
2023-02-06T20:48:46.920Z,6.97
2023-02-06T20:51:14.353Z,7.02
2023-02-06T20:53:40.957Z,7.00
2023-02-06T20:56:11.889Z,7.06
2023-02-06T20:58:39.338Z,7.07
2023-02-06T21:01:19.337Z,7.10
2023-02-06T21:03:46.497Z,7.08
2023-02-06T21:06:13.343Z,7.15
2023-02-06T21:08:40.129Z,7.10
2023-02-06T21:11:06.686Z,7.08
2023-02-06T21:13:33.577Z,7.05
2023-02-06T21:16:00.387Z,7.09
2023-02-06T21:18:28.387Z,7.09
2023-02-06T21:20:55.770Z,7.10
2023-02-06T21:23:22.824Z,7.11
2023-02-06T21:25:53.549Z,7.11
2023-02-06T21:28:20.539Z,7.03
2023-02-06T21:30:47.933Z,7.04
2023-02-06T21:33:14.989Z,7.00
2023-02-06T21:35:48.189Z,6.96
2023-02-06T21:38:14.749Z,7.02
2023-02-06T21:40:41.354Z,7.00
2023-02-06T21:43:07.963Z,6.90
2023-02-06T21:45:34.549Z,6.89
2023-02-06T21:48:01.640Z,6.83
2023-02-06T21:50:28.132Z,6.79
2023-02-06T21:52:54.615Z,6.83
2023-02-06T21:55:21.244Z,6.82
2023-02-06T21:57:47.912Z,6.78
2023-02-06T22:00:14.924Z,6.70
2023-02-06T22:02:41.613Z,6.72
2023-02-06T22:05:08.355Z,6.66
2023-02-06T22:07:38.040Z,6.59
2023-02-06T22:10:05.456Z,6.61
2023-02-06T22:12:32.180Z,6.57
2023-02-06T22:14:58.844Z,6.57
2023-02-06T22:17:25.764Z,6.54
2023-02-06T22:19:55.179Z,6.51
2023-02-06T22:22:21.894Z,6.44
2023-02-06T22:24:51.714Z,6.39
2023-02-06T22:27:18.297Z,6.36
2023-02-06T22:29:44.918Z,6.40
2023-02-06T22:32:11.659Z,6.48
2023-02-06T22:34:38.253Z,6.42
2023-02-06T22:37:04.927Z,6.44
2023-02-06T22:39:31.656Z,6.40
2023-02-06T22:41:58.152Z,6.38
2023-02-06T22:44:24.698Z,6.35
2023-02-06T22:46:52.846Z,6.32
2023-02-06T22:49:20.555Z,6.30
2023-02-06T22:51:47.409Z,6.30
2023-02-06T22:54:14.348Z,6.25
2023-02-06T22:56:41.364Z,6.33
2023-02-06T22:59:07.928Z,6.30
2023-02-06T23:01:36.433Z,6.23
2023-02-06T23:04:03.889Z,6.23
2023-02-06T23:06:31.636Z,6.31
2023-02-06T23:08:58.877Z,6.31
2023-02-06T23:11:26.196Z,6.31
2023-02-06T23:13:53.859Z,6.34
2023-02-06T23:16:20.985Z,6.36
2023-02-06T23:18:47.961Z,6.34
2023-02-06T23:21:15.164Z,6.43
2023-02-06T23:23:42.363Z,6.35
2023-02-06T23:26:10.901Z,6.44
2023-02-06T23:28:38.334Z,6.58
2023-02-06T23:31:05.831Z,6.70
2023-02-06T23:33:32.671Z,6.57
2023-02-06T23:36:07.736Z,6.52
2023-02-06T23:38:34.324Z,6.47
2023-02-06T23:41:20.414Z,6.42
2023-02-06T23:43:58.088Z,6.41
2023-02-06T23:46:25.434Z,6.40
2023-02-06T23:48:52.602Z,6.40
2023-02-06T23:51:20.942Z,6.29
2023-02-06T23:53:48.279Z,6.22
2023-02-06T23:56:16.266Z,6.18
2023-02-06T23:58:43.224Z,6.16
